createdAt,value
2019-01-16T00:02:00.192Z,12.40
2019-01-16T00:04:54.955Z,10.27
2019-01-16T00:07:43.264Z,12.80
2019-01-16T00:10:50.364Z,9.67
2019-01-16T00:13:41.630Z,8.60
2019-01-16T00:16:26.859Z,14.20
2019-01-16T00:19:14.356Z,12.30
2019-01-16T00:22:11.760Z,14.73
2019-01-16T00:25:00.942Z,12.33
2019-01-16T00:27:48.454Z,13.33
2019-01-16T00:30:35.448Z,11.63
2019-01-16T00:33:42.057Z,10.57
2019-01-16T00:36:29.171Z,15.07
2019-01-16T00:39:16.408Z,11.47
2019-01-16T00:42:03.821Z,14.40
2019-01-16T00:45:01.262Z,17.67
2019-01-16T00:47:49.591Z,12.87
2019-01-16T00:50:37.905Z,18.67
2019-01-16T00:53:26.234Z,19.10
2019-01-16T00:56:26.669Z,15.50
2019-01-16T00:59:16.965Z,12.37
2019-01-16T01:02:17.438Z,16.80
2019-01-16T01:05:11.897Z,15.17
2019-01-16T01:08:03.036Z,16.70
2019-01-16T01:10:54.379Z,12.63
2019-01-16T01:13:46.673Z,14.73
2019-01-16T01:16:34.007Z,13.13
2019-01-16T01:19:29.846Z,15.50
2019-01-16T01:22:17.157Z,12.13
2019-01-16T01:25:17.850Z,16.43
2019-01-16T01:27:57.922Z,14.27
2019-01-16T01:30:52.345Z,15.53
2019-01-16T01:33:29.684Z,12.23
2019-01-16T01:36:17.023Z,13.47
2019-01-16T01:39:05.453Z,14.33
2019-01-16T01:41:52.383Z,17.07
2019-01-16T01:44:55.730Z,10.80
2019-01-16T01:47:50.155Z,15.00
2019-01-16T01:50:40.708Z,15.90
2019-01-16T01:53:31.921Z,13.53
2019-01-16T01:56:11.317Z,13.47
2019-01-16T01:59:07.787Z,10.97
2019-01-16T02:01:49.647Z,11.77
2019-01-16T02:04:44.154Z,14.93
2019-01-16T02:07:44.911Z,9.27
2019-01-16T02:10:24.325Z,12.63
2019-01-16T02:13:18.404Z,13.10
2019-01-16T02:16:05.583Z,14.80
2019-01-16T02:18:53.122Z,12.07
2019-01-16T02:21:40.336Z,10.00
2019-01-16T02:24:34.132Z,12.13
2019-01-16T02:27:31.816Z,12.60
2019-01-16T02:30:26.006Z,14.83
2019-01-16T02:33:17.581Z,15.17
2019-01-16T02:36:04.522Z,15.00
2019-01-16T02:38:49.662Z,14.90
2019-01-16T02:41:40.710Z,15.03
2019-01-16T02:44:47.437Z,13.63
2019-01-16T02:47:34.628Z,13.07
2019-01-16T02:50:23.393Z,12.87
2019-01-16T02:53:11.730Z,12.70
2019-01-16T02:55:49.007Z,12.37
2019-01-16T03:02:53.607Z,14.77
2019-01-16T03:05:48.475Z,10.23
2019-01-16T03:08:36.762Z,10.20
2019-01-16T03:11:20.691Z,9.20
2019-01-16T03:14:02.446Z,10.17
2019-01-16T03:17:03.201Z,13.67
2019-01-16T03:20:00.662Z,10.70
2019-01-16T03:22:59.230Z,11.00
2019-01-16T03:25:56.364Z,14.67
2019-01-16T03:28:47.662Z,11.07
2019-01-16T03:31:48.266Z,10.53
2019-01-16T03:34:45.830Z,10.20
2019-01-16T03:37:29.619Z,11.53
2019-01-16T03:40:11.741Z,11.43
2019-01-16T03:43:12.284Z,12.57
2019-01-16T03:46:12.692Z,9.57
2019-01-16T03:49:01.060Z,12.97
2019-01-16T03:51:48.149Z,11.03
2019-01-16T03:54:36.443Z,12.60
2019-01-16T03:57:24.755Z,12.87
2019-01-16T04:00:12.851Z,11.73
2019-01-16T04:03:15.974Z,10.90
2019-01-16T04:06:03.412Z,10.97
2019-01-16T04:08:50.466Z,13.67
2019-01-16T04:11:45.546Z,10.93
2019-01-16T04:14:35.259Z,11.67
2019-01-16T04:17:22.199Z,12.53
2019-01-16T04:20:07.849Z,12.17
2019-01-16T04:22:56.765Z,12.77
2019-01-16T04:25:54.407Z,13.17
2019-01-16T04:28:39.843Z,12.03
2019-01-16T04:31:40.224Z,10.50
2019-01-16T04:34:27.072Z,13.70
2019-01-16T04:37:30.511Z,11.50
2019-01-16T04:40:17.704Z,13.90
2019-01-16T04:43:04.919Z,13.70
2019-01-16T04:46:05.664Z,12.63
2019-01-16T04:48:45.065Z,9.67
2019-01-16T04:51:30.836Z,12.13
2019-01-16T04:54:24.945Z,13.20
2019-01-16T04:57:07.232Z,9.47
2019-01-16T04:59:55.926Z,10.03
2019-01-16T05:02:47.243Z,11.73
2019-01-16T05:05:38.343Z,11.70
2019-01-16T05:08:38.988Z,11.27
2019-01-16T05:11:26.140Z,9.70
2019-01-16T05:14:13.087Z,8.73
2019-01-16T05:17:07.490Z,9.13
2019-01-16T05:19:54.900Z,10.57
2019-01-16T05:22:48.997Z,9.00
2019-01-16T05:25:37.323Z,10.10
2019-01-16T05:28:15.945Z,10.80
2019-01-16T05:31:03.131Z,11.50
2019-01-16T05:34:00.463Z,11.27
2019-01-16T05:36:47.615Z,10.57
2019-01-16T05:39:34.722Z,9.57
2019-01-16T05:42:32.463Z,11.97
2019-01-16T05:45:20.706Z,9.23
2019-01-16T05:48:00.116Z,7.03
2019-01-16T05:50:47.422Z,9.90
2019-01-16T05:53:45.147Z,7.97
2019-01-16T05:56:32.036Z,8.97
2019-01-16T05:59:20.492Z,8.63
2019-01-16T06:02:07.477Z,9.37
2019-01-16T06:04:58.643Z,10.80
2019-01-16T06:07:45.520Z,7.93
2019-01-16T06:10:29.140Z,9.77
2019-01-16T06:13:16.174Z,10.33
2019-01-16T06:15:54.793Z,11.07
2019-01-16T06:18:34.071Z,8.03
2019-01-16T06:21:21.261Z,9.37
2019-01-16T06:24:24.970Z,9.33
2019-01-16T06:27:22.540Z,10.47
2019-01-16T06:30:09.724Z,11.23
2019-01-16T06:33:01.071Z,10.10
2019-01-16T06:35:52.207Z,11.77
2019-01-16T06:38:39.867Z,11.80
2019-01-16T06:41:31.247Z,13.27
2019-01-16T06:44:19.577Z,12.80
2019-01-16T06:47:07.845Z,12.63
2019-01-16T06:50:01.677Z,13.17
2019-01-16T06:52:38.886Z,14.00
2019-01-16T06:55:23.679Z,15.00
2019-01-16T06:58:15.215Z,13.87
2019-01-16T07:00:55.488Z,15.17
2019-01-16T07:03:44.655Z,14.00
2019-01-16T07:06:28.193Z,16.10
2019-01-16T07:09:15.472Z,13.27
2019-01-16T07:11:54.209Z,14.20
2019-01-16T07:14:40.115Z,13.10
2019-01-16T07:17:37.320Z,16.40
2019-01-16T07:20:16.385Z,14.93
2019-01-16T07:23:11.932Z,15.27
2019-01-16T07:26:15.231Z,16.10
2019-01-16T07:29:03.661Z,12.70
2019-01-16T07:32:04.119Z,16.50
2019-01-16T07:34:51.628Z,16.27
2019-01-16T07:37:29.492Z,17.77
2019-01-16T07:40:16.779Z,13.90
2019-01-16T07:42:57.487Z,15.03
2019-01-16T07:45:44.551Z,14.53
2019-01-16T07:48:45.211Z,13.63
2019-01-16T07:51:39.871Z,14.60
2019-01-16T07:54:39.994Z,13.10
2019-01-16T07:57:27.191Z,16.40
2019-01-16T08:00:14.296Z,18.50
2019-01-16T08:03:01.323Z,18.43
2019-01-16T08:05:52.594Z,15.43
2019-01-16T08:08:39.575Z,18.90
2019-01-16T08:11:30.851Z,17.43
2019-01-16T08:14:17.992Z,18.17
2019-01-16T08:17:00.437Z,20.73
2019-01-16T08:19:38.514Z,20.97
2019-01-16T08:22:36.167Z,19.70
2019-01-16T08:25:27.869Z,20.20
2019-01-16T08:28:23.862Z,19.83
2019-01-16T08:31:15.351Z,21.53
2019-01-16T08:34:06.720Z,23.00
2019-01-16T08:37:10.204Z,22.43
2019-01-16T08:40:01.448Z,23.80
2019-01-16T08:42:44.129Z,22.30
2019-01-16T08:45:44.322Z,22.20
2019-01-16T08:48:42.026Z,23.47
2019-01-16T08:51:33.212Z,22.90
2019-01-16T08:54:20.217Z,21.93
2019-01-16T08:57:14.459Z,19.10
2019-01-16T09:00:02.804Z,21.23
2019-01-16T09:02:58.348Z,23.40
2019-01-16T09:05:55.952Z,20.10
2019-01-16T09:08:41.277Z,22.03
2019-01-16T09:11:28.786Z,22.53
2019-01-16T09:14:19.688Z,23.00
2019-01-16T09:17:13.741Z,22.90
2019-01-16T09:19:52.046Z,23.20
2019-01-16T09:22:41.890Z,21.83
2019-01-16T09:25:45.390Z,20.30
2019-01-16T09:28:32.226Z,23.37
2019-01-16T09:31:25.321Z,18.87
2019-01-16T09:34:19.763Z,23.80
2019-01-16T09:37:06.883Z,21.63
2019-01-16T09:39:55.207Z,23.53
2019-01-16T09:42:43.594Z,25.53
2019-01-16T09:45:30.629Z,19.83
2019-01-16T09:48:16.976Z,24.77
2019-01-16T09:50:56.058Z,25.90
2019-01-16T09:53:44.477Z,26.50
2019-01-16T09:56:47.956Z,28.83
2019-01-16T09:59:34.564Z,26.60
2019-01-16T10:02:22.047Z,29.17
2019-01-16T10:05:09.305Z,29.87
2019-01-16T10:07:56.514Z,24.30
2019-01-16T10:11:03.235Z,28.20
2019-01-16T10:13:44.612Z,30.57
2019-01-16T10:16:24.058Z,29.57
2019-01-16T10:19:11.543Z,32.70
2019-01-16T10:21:59.921Z,27.37
2019-01-16T10:24:37.737Z,32.23
2019-01-16T10:27:28.186Z,28.87
2019-01-16T10:30:16.578Z,29.60
2019-01-16T10:33:03.878Z,33.40
2019-01-16T10:35:51.015Z,34.13
2019-01-16T10:38:37.885Z,32.83
2019-01-16T10:41:25.107Z,34.50
2019-01-16T10:44:16.325Z,36.47
2019-01-16T10:47:07.963Z,37.90
2019-01-16T10:49:59.547Z,31.03
2019-01-16T10:52:46.696Z,36.20
2019-01-16T10:55:34.072Z,36.57
2019-01-16T10:58:25.593Z,40.23
2019-01-16T11:01:12.723Z,38.20
2019-01-16T11:03:56.076Z,37.77
2019-01-16T11:06:50.329Z,34.83
2019-01-16T11:09:44.797Z,38.30
2019-01-16T11:12:31.948Z,34.27
2019-01-16T11:15:19.011Z,35.43
2019-01-16T11:18:16.959Z,36.57
2019-01-16T11:20:56.790Z,38.43
2019-01-16T11:23:45.294Z,37.47
2019-01-16T11:26:32.315Z,36.33
2019-01-16T11:29:19.541Z,39.63
2019-01-16T11:32:19.951Z,37.57
2019-01-16T11:35:21.501Z,34.00
2019-01-16T11:38:08.921Z,35.50
2019-01-16T11:40:51.006Z,35.20
2019-01-16T11:43:42.793Z,38.83
2019-01-16T11:46:30.415Z,41.97
2019-01-16T11:49:17.845Z,42.63
2019-01-16T11:52:05.712Z,40.77
2019-01-16T11:55:06.306Z,37.73
2019-01-16T11:57:54.666Z,39.60
2019-01-16T12:00:37.608Z,41.77
2019-01-16T12:03:36.591Z,39.03
2019-01-16T12:06:26.131Z,39.60
2019-01-16T12:09:13.237Z,39.67
2019-01-16T12:12:13.643Z,39.50
2019-01-16T12:15:02.053Z,40.90
2019-01-16T12:17:56.245Z,41.63
2019-01-16T12:20:44.620Z,39.93
2019-01-16T12:23:29.636Z,38.27
2019-01-16T12:26:16.923Z,37.50
2019-01-16T12:29:14.351Z,36.77
2019-01-16T12:32:14.692Z,35.93
2019-01-16T12:42:23.503Z,34.63
2019-01-16T12:45:17.728Z,37.83
2019-01-16T12:48:04.525Z,37.20
2019-01-16T12:50:52.851Z,37.30
2019-01-16T12:53:41.599Z,38.77
2019-01-16T12:56:22.364Z,37.37
2019-01-16T12:59:10.742Z,37.63
2019-01-16T13:01:57.897Z,37.67
2019-01-16T13:04:58.591Z,39.17
2019-01-16T13:07:58.871Z,36.83
2019-01-16T13:11:02.760Z,38.77
2019-01-16T13:13:43.652Z,38.57
2019-01-16T13:16:32.066Z,39.40
2019-01-16T13:19:15.492Z,39.40
2019-01-16T13:22:02.886Z,39.30
2019-01-16T13:24:50.351Z,40.10
2019-01-16T13:27:37.392Z,42.93
2019-01-16T13:30:24.360Z,43.50
2019-01-16T13:33:21.924Z,39.50
2019-01-16T13:36:09.070Z,42.73
2019-01-16T13:38:57.561Z,43.00
2019-01-16T13:41:54.959Z,43.57
2019-01-16T13:44:58.612Z,42.27
2019-01-16T13:47:42.289Z,42.90
2019-01-16T13:50:40.509Z,43.00
2019-01-16T13:53:27.849Z,42.93
2019-01-16T13:56:25.108Z,42.03
2019-01-16T13:59:32.040Z,44.10
2019-01-16T14:02:35.497Z,43.07
2019-01-16T14:05:23.634Z,41.20
2019-01-16T14:08:09.843Z,42.50
2019-01-16T14:11:01.792Z,42.87
2019-01-16T14:14:00.597Z,42.77
2019-01-16T14:16:48.286Z,42.27
2019-01-16T14:19:33.975Z,40.20
2019-01-16T14:22:34.397Z,42.30
2019-01-16T14:25:24.706Z,35.60
2019-01-16T14:28:28.193Z,38.33
2019-01-16T14:31:16.756Z,36.43
2019-01-16T14:34:04.045Z,41.20
2019-01-16T14:36:52.025Z,36.37
2019-01-16T14:39:39.302Z,39.67
2019-01-16T14:42:26.355Z,35.17
2019-01-16T14:45:13.620Z,36.10
2019-01-16T14:48:05.022Z,35.60
2019-01-16T14:50:59.372Z,37.50
2019-01-16T14:53:45.859Z,35.57
2019-01-16T14:56:46.236Z,37.17
2019-01-16T14:59:37.782Z,34.80
2019-01-16T15:02:29.222Z,36.23
2019-01-16T15:05:20.572Z,38.37
2019-01-16T15:08:07.890Z,38.67
2019-01-16T15:11:01.987Z,36.73
2019-01-16T15:13:50.346Z,34.97
2019-01-16T15:16:47.833Z,33.77
2019-01-16T15:19:26.936Z,32.60
2019-01-16T15:22:17.696Z,26.10
2019-01-16T15:25:21.484Z,30.03
2019-01-16T15:27:57.642Z,28.07
2019-01-16T15:30:44.443Z,27.83
2019-01-16T15:33:26.626Z,23.27
2019-01-16T15:36:30.295Z,29.93
2019-01-16T15:39:11.461Z,33.63
2019-01-16T15:41:59.331Z,20.53
2019-01-16T15:44:40.405Z,26.53
2019-01-16T15:47:28.745Z,26.87
2019-01-16T15:50:11.673Z,24.30
2019-01-16T15:53:03.198Z,24.30
2019-01-16T15:55:50.149Z,17.00
2019-01-16T15:58:47.668Z,22.67
2019-01-16T16:01:48.228Z,22.93
2019-01-16T16:04:35.574Z,23.93
2019-01-16T16:07:20.046Z,21.40
2019-01-16T16:09:59.437Z,21.53
2019-01-16T16:12:54.059Z,21.17
2019-01-16T16:15:51.207Z,23.13
2019-01-16T16:18:44.170Z,17.87
2019-01-16T16:21:32.463Z,17.97
2019-01-16T16:24:13.155Z,17.20
2019-01-16T16:27:00.628Z,21.23
2019-01-16T16:30:04.336Z,21.93
2019-01-16T16:32:46.149Z,20.23
2019-01-16T16:35:40.729Z,19.93
2019-01-16T16:38:32.354Z,21.37
2019-01-16T16:41:20.706Z,20.60
2019-01-16T16:44:09.003Z,17.60
2019-01-16T16:46:56.524Z,16.87
2019-01-16T16:49:44.910Z,18.97
2019-01-16T16:52:33.803Z,20.70
2019-01-16T16:55:34.540Z,23.30
2019-01-16T16:58:21.656Z,25.20
2019-01-16T17:01:15.805Z,24.83
2019-01-16T17:04:04.335Z,24.40
2019-01-16T17:07:08.388Z,27.13
2019-01-16T17:09:59.804Z,27.27
2019-01-16T17:12:38.040Z,22.63
2019-01-16T17:15:27.040Z,24.80
2019-01-16T17:18:30.796Z,24.37
2019-01-16T17:21:22.330Z,29.47
2019-01-16T17:24:25.978Z,29.53
2019-01-16T17:27:13.347Z,34.73
2019-01-16T17:29:56.305Z,36.13
2019-01-16T17:32:40.296Z,34.27
2019-01-16T17:35:31.707Z,40.03
2019-01-16T17:38:38.467Z,34.97
2019-01-16T17:41:25.441Z,34.77
2019-01-16T17:44:07.857Z,37.33
2019-01-16T17:46:59.018Z,43.07
2019-01-16T17:49:59.595Z,41.80
2019-01-16T17:52:47.903Z,43.47
2019-01-16T17:55:42.147Z,44.83
2019-01-16T17:58:39.369Z,41.03
2019-01-16T18:01:27.651Z,39.47
2019-01-16T18:04:22.242Z,35.60
2019-01-16T18:07:10.607Z,37.07
2019-01-16T18:09:57.579Z,34.60
2019-01-16T18:12:44.881Z,35.37
2019-01-16T18:15:45.302Z,38.57
2019-01-16T18:18:27.196Z,49.57
2019-01-16T18:21:08.432Z,57.93
2019-01-16T18:24:02.958Z,54.70
2019-01-16T18:26:57.134Z,41.47
2019-01-16T18:29:50.674Z,40.43
2019-01-16T18:32:42.564Z,44.80
2019-01-16T18:35:37.944Z,54.40
2019-01-16T18:38:26.274Z,58.57
2019-01-16T18:41:21.129Z,60.73
2019-01-16T18:44:08.271Z,65.90
2019-01-16T18:47:05.757Z,59.17
2019-01-16T18:49:42.380Z,49.13
2019-01-16T18:52:31.102Z,44.47
2019-01-16T18:55:22.344Z,43.00
2019-01-16T18:58:09.638Z,42.47
2019-01-16T19:00:56.837Z,41.73
2019-01-16T19:03:38.360Z,39.80
2019-01-16T19:06:25.587Z,44.47
2019-01-16T19:09:12.301Z,45.70
2019-01-16T19:12:06.786Z,66.57
2019-01-16T19:14:53.959Z,78.47
2019-01-16T19:17:48.557Z,93.77
2019-01-16T19:20:36.911Z,79.60
2019-01-16T19:23:37.759Z,70.43
2019-01-16T19:26:28.860Z,66.83
2019-01-16T19:29:24.435Z,66.17
2019-01-16T19:32:31.428Z,66.87
2019-01-16T19:35:18.654Z,65.27
2019-01-16T19:38:05.547Z,62.07
2019-01-16T19:41:00.098Z,65.23
2019-01-16T19:43:40.957Z,66.07
2019-01-16T19:46:38.584Z,65.97
2019-01-16T19:49:19.710Z,65.23
2019-01-16T19:52:17.075Z,65.03
2019-01-16T19:55:08.566Z,64.33
2019-01-16T19:57:55.984Z,60.60
2019-01-16T20:00:38.167Z,62.57
2019-01-16T20:03:26.475Z,66.37
2019-01-16T20:06:14.497Z,72.97
2019-01-16T20:09:11.773Z,82.03
2019-01-16T20:11:58.641Z,79.67
2019-01-16T20:14:39.454Z,81.60
2019-01-16T20:17:34.233Z,78.57
2019-01-16T20:20:34.789Z,79.33
2019-01-16T20:23:23.228Z,81.83
2019-01-16T20:26:05.450Z,81.43
2019-01-16T20:28:52.883Z,77.43
2019-01-16T20:31:40.031Z,78.30
2019-01-16T20:34:28.743Z,79.73
2019-01-16T20:37:19.987Z,80.63
2019-01-16T20:40:07.178Z,84.80
2019-01-16T20:43:10.656Z,75.70
2019-01-16T20:46:11.369Z,78.07
2019-01-16T20:49:02.494Z,78.87
2019-01-16T20:51:49.815Z,79.53
2019-01-16T20:54:43.942Z,82.83
2019-01-16T20:57:38.779Z,75.87
2019-01-16T21:00:25.339Z,76.83
2019-01-16T21:03:13.717Z,73.93
2019-01-16T21:06:08.344Z,63.20
2019-01-16T21:09:05.896Z,66.43
2019-01-16T21:11:54.667Z,57.97
2019-01-16T21:14:38.475Z,58.97
2019-01-16T21:17:13.367Z,58.60
2019-01-16T21:20:14.524Z,55.47
2019-01-16T21:23:02.399Z,55.10
2019-01-16T21:26:00.307Z,54.80
2019-01-16T21:28:51.507Z,51.20
2019-01-16T21:31:31.926Z,61.10
2019-01-16T21:34:35.398Z,70.40
2019-01-16T21:37:24.123Z,80.60
2019-01-16T21:40:12.613Z,79.23
2019-01-16T21:43:01.086Z,74.83
2019-01-16T21:45:45.137Z,68.90
2019-01-16T21:48:29.079Z,71.90
2019-01-16T21:51:10.808Z,67.13
2019-01-16T21:54:05.158Z,66.73
2019-01-16T21:56:53.499Z,62.40
2019-01-16T21:59:30.995Z,63.40
2019-01-16T22:02:19.332Z,73.97
2019-01-16T22:05:21.593Z,70.00
2019-01-16T22:08:10.957Z,71.10
2019-01-16T22:11:14.662Z,71.20
2019-01-16T22:14:07.207Z,67.90
2019-01-16T22:17:02.005Z,72.77
2019-01-16T22:19:57.822Z,79.43
2019-01-16T22:22:44.710Z,71.73
2019-01-16T22:25:32.683Z,64.27
2019-01-16T22:28:14.572Z,59.60
2019-01-16T22:31:03.131Z,62.03
2019-01-16T22:33:45.345Z,63.97
2019-01-16T22:36:32.591Z,57.80
2019-01-16T22:39:30.524Z,55.10
2019-01-16T22:42:25.812Z,52.90
2019-01-16T22:45:18.147Z,54.20
2019-01-16T22:48:06.904Z,54.03
2019-01-16T22:50:53.220Z,53.97
2019-01-16T22:53:44.954Z,53.40
2019-01-16T22:56:45.612Z,55.77
2019-01-16T22:59:40.501Z,60.27
2019-01-16T23:02:40.553Z,62.13
2019-01-16T23:05:31.952Z,60.93
2019-01-16T23:08:07.271Z,60.10
2019-01-16T23:10:58.354Z,60.63
2019-01-16T23:13:57.659Z,61.67
2019-01-16T23:16:52.491Z,63.63
2019-01-16T23:19:39.639Z,81.13
2019-01-16T23:22:34.373Z,111.50
2019-01-16T23:25:40.818Z,91.17
2019-01-16T23:28:35.328Z,89.97
2019-01-16T23:31:17.215Z,76.77
2019-01-16T23:33:54.549Z,74.43
2019-01-16T23:36:58.230Z,68.73
2019-01-16T23:40:01.718Z,69.80
2019-01-16T23:42:53.099Z,66.97
2019-01-16T23:45:41.416Z,64.13
2019-01-16T23:48:26.389Z,66.00
2019-01-16T23:51:13.772Z,64.03
2019-01-16T23:54:00.973Z,66.03
2019-01-16T23:56:49.373Z,62.60
2019-01-16T23:59:37.525Z,62.57
